sensor_id;sensor_type;location;lat;lon;timestamp;pressure;altitude;pressure_sealevel;temperature;humidity
31044;BME280;17710;52.520;13.352;2023-04-07T00:00:24;101631.91;;;10.81;35.53
31044;BME280;17710;52.520;13.352;2023-04-07T00:02:51;101625.97;;;11.08;35.11
31044;BME280;17710;52.520;13.352;2023-04-07T00:05:17;101630.72;;;10.94;35.04
31044;BME280;17710;52.520;13.352;2023-04-07T00:07:44;101630.72;;;10.94;35.19
31044;BME280;17710;52.520;13.352;2023-04-07T00:10:12;101628.31;;;10.83;35.44
31044;BME280;17710;52.520;13.352;2023-04-07T00:12:38;101630.19;;;10.78;36.11
31044;BME280;17710;52.520;13.352;2023-04-07T00:15:06;101626.84;;;10.70;36.14
31044;BME280;17710;52.520;13.352;2023-04-07T00:17:32;101629.25;;;10.81;36.03
31044;BME280;17710;52.520;13.352;2023-04-07T00:19:59;101639.06;;;10.75;35.65
31044;BME280;17710;52.520;13.352;2023-04-07T00:22:25;101630.72;;;10.54;36.35
31044;BME280;17710;52.520;13.352;2023-04-07T00:24:52;101632.78;;;10.81;36.07
31044;BME280;17710;52.520;13.352;2023-04-07T00:27:20;101634.00;;;10.65;35.56
31044;BME280;17710;52.520;13.352;2023-04-07T00:29:47;101626.22;;;10.57;36.02
31044;BME280;17710;52.520;13.352;2023-04-07T00:32:13;101626.81;;;10.71;36.11
31044;BME280;17710;52.520;13.352;2023-04-07T00:34:40;101625.63;;;10.45;36.47
31044;BME280;17710;52.520;13.352;2023-04-07T00:37:06;101619.22;;;10.56;36.18
31044;BME280;17710;52.520;13.352;2023-04-07T00:39:33;101621.31;;;10.81;35.12
31044;BME280;17710;52.520;13.352;2023-04-07T00:41:59;101625.72;;;10.82;35.23
31044;BME280;17710;52.520;13.352;2023-04-07T00:44:27;101620.47;;;10.78;34.83
31044;BME280;17710;52.520;13.352;2023-04-07T00:46:53;101620.94;;;10.57;35.23
31044;BME280;17710;52.520;13.352;2023-04-07T00:49:20;101610.88;;;10.34;36.04
31044;BME280;17710;52.520;13.352;2023-04-07T00:51:46;101622.81;;;10.52;34.79
31044;BME280;17710;52.520;13.352;2023-04-07T00:54:13;101622.16;;;10.43;35.91
31044;BME280;17710;52.520;13.352;2023-04-07T00:56:40;101610.38;;;10.57;36.05
31044;BME280;17710;52.520;13.352;2023-04-07T00:59:06;101613.03;;;10.57;35.98
31044;BME280;17710;52.520;13.352;2023-04-07T01:01:38;101617.69;;;10.46;35.63
31044;BME280;17710;52.520;13.352;2023-04-07T01:04:09;101611.63;;;10.41;36.43
31044;BME280;17710;52.520;13.352;2023-04-07T01:06:39;101599.78;;;10.59;36.22
31044;BME280;17710;52.520;13.352;2023-04-07T01:09:15;101599.16;;;10.48;35.41
31044;BME280;17710;52.520;13.352;2023-04-07T01:11:49;101603.63;;;10.44;35.77
31044;BME280;17710;52.520;13.352;2023-04-07T01:14:19;101603.88;;;10.73;35.12
31044;BME280;17710;52.520;13.352;2023-04-07T01:16:49;101596.66;;;10.40;35.36
31044;BME280;17710;52.520;13.352;2023-04-07T01:19:28;101601.06;;;10.79;33.54
31044;BME280;17710;52.520;13.352;2023-04-07T01:21:57;101601.53;;;10.58;34.27
31044;BME280;17710;52.520;13.352;2023-04-07T01:24:38;101593.44;;;10.67;34.71
31044;BME280;17710;52.520;13.352;2023-04-07T01:27:16;101587.38;;;10.22;34.98
31044;BME280;17710;52.520;13.352;2023-04-07T01:29:46;101586.84;;;10.47;34.51
31044;BME280;17710;52.520;13.352;2023-04-07T01:32:17;101584.34;;;10.39;34.76
31044;BME280;17710;52.520;13.352;2023-04-07T01:34:46;101581.78;;;10.36;34.99
31044;BME280;17710;52.520;13.352;2023-04-07T01:37:14;101583.47;;;10.38;35.09
31044;BME280;17710;52.520;13.352;2023-04-07T01:39:41;101572.66;;;10.08;36.35
31044;BME280;17710;52.520;13.352;2023-04-07T01:42:08;101591.34;;;10.43;35.65
31044;BME280;17710;52.520;13.352;2023-04-07T01:44:36;101585.19;;;10.43;35.87
31044;BME280;17710;52.520;13.352;2023-04-07T01:47:04;101587.91;;;10.38;35.80
31044;BME280;17710;52.520;13.352;2023-04-07T01:49:32;101588.16;;;10.26;35.94
31044;BME280;17710;52.520;13.352;2023-04-07T01:52:01;101586.41;;;10.25;36.00
31044;BME280;17710;52.520;13.352;2023-04-07T01:54:28;101582.38;;;10.06;36.55
31044;BME280;17710;52.520;13.352;2023-04-07T01:56:55;101583.50;;;9.94;36.74
31044;BME280;17710;52.520;13.352;2023-04-07T01:59:24;101583.34;;;10.02;36.47
31044;BME280;17710;52.520;13.352;2023-04-07T02:01:50;101583.19;;;10.11;36.73
31044;BME280;17710;52.520;13.352;2023-04-07T02:04:21;101585.63;;;9.75;37.55
31044;BME280;17710;52.520;13.352;2023-04-07T02:06:52;101584.75;;;10.21;36.67
31044;BME280;17710;52.520;13.352;2023-04-07T02:09:21;101585.84;;;10.09;37.27
31044;BME280;17710;52.520;13.352;2023-04-07T02:11:50;101582.56;;;10.41;35.36
31044;BME280;17710;52.520;13.352;2023-04-07T02:14:18;101579.47;;;10.21;36.12
31044;BME280;17710;52.520;13.352;2023-04-07T02:16:49;101575.09;;;10.20;35.15
31044;BME280;17710;52.520;13.352;2023-04-07T02:19:16;101571.66;;;10.13;34.80
31044;BME280;17710;52.520;13.352;2023-04-07T02:21:45;101573.38;;;10.16;34.85
31044;BME280;17710;52.520;13.352;2023-04-07T02:24:13;101570.50;;;10.28;34.67
31044;BME280;17710;52.520;13.352;2023-04-07T02:26:39;101566.47;;;10.09;34.82
31044;BME280;17710;52.520;13.352;2023-04-07T02:29:05;101564.19;;;10.36;34.12
31044;BME280;17710;52.520;13.352;2023-04-07T02:31:32;101569.75;;;10.63;33.63
31044;BME280;17710;52.520;13.352;2023-04-07T02:33:58;101567.16;;;10.60;33.68
31044;BME280;17710;52.520;13.352;2023-04-07T02:36:24;101560.09;;;10.60;33.54
31044;BME280;17710;52.520;13.352;2023-04-07T02:38:53;101564.69;;;10.52;33.71
31044;BME280;17710;52.520;13.352;2023-04-07T02:41:19;101558.09;;;10.70;33.77
31044;BME280;17710;52.520;13.352;2023-04-07T02:43:46;101567.22;;;10.57;34.01
31044;BME280;17710;52.520;13.352;2023-04-07T02:46:12;101566.25;;;10.62;34.09
31044;BME280;17710;52.520;13.352;2023-04-07T02:48:39;101562.75;;;10.60;33.85
31044;BME280;17710;52.520;13.352;2023-04-07T02:51:05;101555.59;;;10.64;33.94
31044;BME280;17710;52.520;13.352;2023-04-07T02:53:31;101563.59;;;10.62;34.12
31044;BME280;17710;52.520;13.352;2023-04-07T02:55:59;101563.91;;;10.49;34.42
31044;BME280;17710;52.520;13.352;2023-04-07T02:58:25;101556.47;;;10.24;34.69
31044;BME280;17710;52.520;13.352;2023-04-07T03:00:52;101562.06;;;10.51;34.34
31044;BME280;17710;52.520;13.352;2023-04-07T03:03:18;101562.31;;;10.40;34.28
31044;BME280;17710;52.520;13.352;2023-04-07T03:05:45;101559.53;;;10.46;34.27
31044;BME280;17710;52.520;13.352;2023-04-07T03:08:11;101556.19;;;10.38;34.83
31044;BME280;17710;52.520;13.352;2023-04-07T03:10:37;101562.19;;;10.46;34.72
31044;BME280;17710;52.520;13.352;2023-04-07T03:13:05;101553.41;;;10.44;34.65
31044;BME280;17710;52.520;13.352;2023-04-07T03:15:32;101556.31;;;10.33;34.53
31044;BME280;17710;52.520;13.352;2023-04-07T03:17:58;101556.31;;;10.33;34.67
31044;BME280;17710;52.520;13.352;2023-04-07T03:20:25;101550.22;;;10.30;34.54
31044;BME280;17710;52.520;13.352;2023-04-07T03:22:51;101554.72;;;10.25;34.79
31044;BME280;17710;52.520;13.352;2023-04-07T03:25:18;101541.31;;;10.34;34.70
31044;BME280;17710;52.520;13.352;2023-04-07T03:27:44;101547.63;;;10.27;34.92
31044;BME280;17710;52.520;13.352;2023-04-07T03:30:12;101547.19;;;10.48;34.79
31044;BME280;17710;52.520;13.352;2023-04-07T03:32:39;101543.22;;;10.27;34.67
31044;BME280;17710;52.520;13.352;2023-04-07T03:35:06;101545.91;;;10.26;34.77
31044;BME280;17710;52.520;13.352;2023-04-07T03:37:32;101541.34;;;10.32;34.58
31044;BME280;17710;52.520;13.352;2023-04-07T03:39:59;101540.44;;;10.35;35.00
31044;BME280;17710;52.520;13.352;2023-04-07T03:42:25;101537.03;;;10.28;35.03
31044;BME280;17710;52.520;13.352;2023-04-07T03:44:51;101533.53;;;10.28;35.05
31044;BME280;17710;52.520;13.352;2023-04-07T03:47:19;101535.41;;;10.23;35.38
31044;BME280;17710;52.520;13.352;2023-04-07T03:49:46;101539.91;;;10.18;35.21
31044;BME280;17710;52.520;13.352;2023-04-07T03:52:13;101532.81;;;10.20;35.37
31044;BME280;17710;52.520;13.352;2023-04-07T03:54:39;101529.50;;;10.09;35.38
31044;BME280;17710;52.520;13.352;2023-04-07T03:57:07;101534.47;;;10.25;35.43
31044;BME280;17710;52.520;13.352;2023-04-07T03:59:33;101534.28;;;10.33;35.22
31044;BME280;17710;52.520;13.352;2023-04-07T04:01:59;101536.75;;;10.42;35.30
31044;BME280;17710;52.520;13.352;2023-04-07T04:04:27;101532.81;;;10.20;35.61
31044;BME280;17710;52.520;13.352;2023-04-07T04:06:53;101531.88;;;10.24;35.20
31044;BME280;17710;52.520;13.352;2023-04-07T04:09:20;101536.22;;;10.25;35.38
31044;BME280;17710;52.520;13.352;2023-04-07T04:11:46;101541.94;;;10.04;36.14
31044;BME280;17710;52.520;13.352;2023-04-07T04:14:13;101540.63;;;10.26;35.70
31044;BME280;17710;52.520;13.352;2023-04-07T04:16:39;101544.59;;;10.04;35.71
31044;BME280;17710;52.520;13.352;2023-04-07T04:19:06;101545.28;;;10.12;35.88
31044;BME280;17710;52.520;13.352;2023-04-07T04:21:34;101540.94;;;10.11;35.83
31044;BME280;17710;52.520;13.352;2023-04-07T04:24:00;101539.06;;;10.16;35.99
31044;BME280;17710;52.520;13.352;2023-04-07T04:26:28;101534.63;;;10.16;35.91
31044;BME280;17710;52.520;13.352;2023-04-07T04:28:54;101549.75;;;10.10;35.99
31044;BME280;17710;52.520;13.352;2023-04-07T04:31:20;101547.03;;;10.11;35.90
31044;BME280;17710;52.520;13.352;2023-04-07T04:33:47;101541.38;;;10.31;35.68
31044;BME280;17710;52.520;13.352;2023-04-07T04:36:13;101540.44;;;10.35;35.31
31044;BME280;17710;52.520;13.352;2023-04-07T04:38:41;101543.75;;;10.02;36.29
31044;BME280;17710;52.520;13.352;2023-04-07T04:41:07;101549.44;;;10.25;36.08
31044;BME280;17710;52.520;13.352;2023-04-07T04:43:33;101542.31;;;10.30;35.81
31044;BME280;17710;52.520;13.352;2023-04-07T04:46:00;101539.00;;;10.19;36.10
31044;BME280;17710;52.520;13.352;2023-04-07T04:48:26;101545.09;;;10.24;36.20
31044;BME280;17710;52.520;13.352;2023-04-07T04:50:52;101547.16;;;10.07;36.49
31044;BME280;17710;52.520;13.352;2023-04-07T04:53:19;101550.78;;;10.01;36.92
31044;BME280;17710;52.520;13.352;2023-04-07T04:55:46;101553.53;;;9.96;36.70
31044;BME280;17710;52.520;13.352;2023-04-07T04:58:16;101549.13;;;9.97;36.98
31044;BME280;17710;52.520;13.352;2023-04-07T05:00:42;101554.47;;;9.94;37.00
31044;BME280;17710;52.520;13.352;2023-04-07T05:03:09;101555.72;;;9.75;37.27
31044;BME280;17710;52.520;13.352;2023-04-07T05:05:35;101552.78;;;9.90;37.35
31044;BME280;17710;52.520;13.352;2023-04-07T05:08:02;101553.66;;;9.90;37.31
31044;BME280;17710;52.520;13.352;2023-04-07T05:10:28;101559.63;;;9.98;37.06
31044;BME280;17710;52.520;13.352;2023-04-07T05:12:56;101564.28;;;9.87;37.34
31044;BME280;17710;52.520;13.352;2023-04-07T05:15:22;101566.19;;;9.79;37.50
31044;BME280;17710;52.520;13.352;2023-04-07T05:17:49;101566.88;;;9.89;37.42
31044;BME280;17710;52.520;13.352;2023-04-07T05:20:15;101571.94;;;9.99;36.99
31044;BME280;17710;52.520;13.352;2023-04-07T05:22:41;101567.38;;;10.08;37.10
31044;BME280;17710;52.520;13.352;2023-04-07T05:25:08;101568.88;;;10.22;36.98
31044;BME280;17710;52.520;13.352;2023-04-07T05:27:35;101562.16;;;10.05;37.25
31044;BME280;17710;52.520;13.352;2023-04-07T05:30:03;101563.72;;;10.15;37.03
31044;BME280;17710;52.520;13.352;2023-04-07T05:32:30;101566.97;;;10.29;36.74
31044;BME280;17710;52.520;13.352;2023-04-07T05:34:56;101555.03;;;10.10;36.75
31044;BME280;17710;52.520;13.352;2023-04-07T05:37:22;101559.34;;;10.12;37.12
31044;BME280;17710;52.520;13.352;2023-04-07T05:39:49;101559.09;;;10.26;37.12
31044;BME280;17710;52.520;13.352;2023-04-07T05:42:15;101557.47;;;10.20;37.06
31044;BME280;17710;52.520;13.352;2023-04-07T05:44:42;101556.47;;;10.24;37.08
31044;BME280;17710;52.520;13.352;2023-04-07T05:47:09;101552.50;;;10.45;37.11
31044;BME280;17710;52.520;13.352;2023-04-07T05:49:36;101561.28;;;10.47;36.63
31044;BME280;17710;52.520;13.352;2023-04-07T05:52:09;101553.22;;;10.53;36.69
31044;BME280;17710;52.520;13.352;2023-04-07T05:54:36;101549.34;;;10.69;36.47
31044;BME280;17710;52.520;13.352;2023-04-07T05:57:03;101548.19;;;10.79;36.40
31044;BME280;17710;52.520;13.352;2023-04-07T05:59:29;101550.91;;;10.76;36.48
31044;BME280;17710;52.520;13.352;2023-04-07T06:01:56;101555.47;;;10.70;36.40
31044;BME280;17710;52.520;13.352;2023-04-07T06:04:24;101562.41;;;10.75;36.66
31044;BME280;17710;52.520;13.352;2023-04-07T06:06:50;101567.59;;;10.78;36.41
31044;BME280;17710;52.520;13.352;2023-04-07T06:09:19;101562.59;;;10.66;36.59
31044;BME280;17710;52.520;13.352;2023-04-07T06:11:45;101568.22;;;10.51;36.75
31044;BME280;17710;52.520;13.352;2023-04-07T06:14:12;101565.94;;;10.74;36.77
31044;BME280;17710;52.520;13.352;2023-04-07T06:16:38;101571.16;;;10.77;36.67
31044;BME280;17710;52.520;13.352;2023-04-07T06:19:06;101573.28;;;10.62;36.72
31044;BME280;17710;52.520;13.352;2023-04-07T06:21:34;101577.63;;;10.64;37.00
31044;BME280;17710;52.520;13.352;2023-04-07T06:24:00;101574.59;;;10.83;36.67
31044;BME280;17710;52.520;13.352;2023-04-07T06:26:27;101576.44;;;10.77;36.79
31044;BME280;17710;52.520;13.352;2023-04-07T06:28:53;101568.41;;;10.82;36.79
31044;BME280;17710;52.520;13.352;2023-04-07T06:31:19;101577.34;;;10.76;36.90
31044;BME280;17710;52.520;13.352;2023-04-07T06:33:46;101581.44;;;10.90;36.73
31044;BME280;17710;52.520;13.352;2023-04-07T06:36:12;101581.44;;;10.90;36.77
31044;BME280;17710;52.520;13.352;2023-04-07T06:38:40;101578.84;;;10.88;37.05
31044;BME280;17710;52.520;13.352;2023-04-07T06:41:07;101578.69;;;10.96;36.78
31044;BME280;17710;52.520;13.352;2023-04-07T06:43:36;101580.47;;;10.94;37.01
31044;BME280;17710;52.520;13.352;2023-04-07T06:46:02;101580.34;;;11.00;37.04
31044;BME280;17710;52.520;13.352;2023-04-07T06:48:29;101577.38;;;11.12;36.99
31044;BME280;17710;52.520;13.352;2023-04-07T06:50:55;101578.47;;;11.03;36.86
31044;BME280;17710;52.520;13.352;2023-04-07T06:53:21;101577.19;;;11.19;36.92
31044;BME280;17710;52.520;13.352;2023-04-07T06:55:49;101572.59;;;11.28;36.85
31044;BME280;17710;52.520;13.352;2023-04-07T06:58:15;101577.78;;;11.31;36.72
31044;BME280;17710;52.520;13.352;2023-04-07T07:00:42;101575.44;;;11.20;36.92
31044;BME280;17710;52.520;13.352;2023-04-07T07:03:08;101584.25;;;11.19;36.95
31044;BME280;17710;52.520;13.352;2023-04-07T07:05:35;101584.97;;;11.26;37.27
31044;BME280;17710;52.520;13.352;2023-04-07T07:08:01;101577.19;;;11.19;37.26
31044;BME280;17710;52.520;13.352;2023-04-07T07:10:28;101585.47;;;11.41;36.79
31044;BME280;17710;52.520;13.352;2023-04-07T07:12:56;101584.84;;;11.64;36.76
31044;BME280;17710;52.520;13.352;2023-04-07T07:15:22;101590.13;;;11.32;37.42
31044;BME280;17710;52.520;13.352;2023-04-07T07:17:49;101587.38;;;11.69;36.65
31044;BME280;17710;52.520;13.352;2023-04-07T07:20:15;101588.31;;;12.00;36.42
31044;BME280;17710;52.520;13.352;2023-04-07T07:22:42;101589.75;;;11.81;36.70
31044;BME280;17710;52.520;13.352;2023-04-07T07:25:09;101591.06;;;11.97;36.19
31044;BME280;17710;52.520;13.352;2023-04-07T07:27:35;101585.31;;;12.12;36.12
31044;BME280;17710;52.520;13.352;2023-04-07T07:30:04;101581.00;;;12.08;35.64
31044;BME280;17710;52.520;13.352;2023-04-07T07:32:31;101592.78;;;11.98;35.76
31044;BME280;17710;52.520;13.352;2023-04-07T07:34:58;101589.84;;;12.40;35.30
31044;BME280;17710;52.520;13.352;2023-04-07T07:37:24;101594.53;;;12.59;34.81
31044;BME280;17710;52.520;13.352;2023-04-07T07:39:50;101596.00;;;12.68;34.02
31044;BME280;17710;52.520;13.352;2023-04-07T07:42:17;101595.28;;;12.92;32.60
31044;BME280;17710;52.520;13.352;2023-04-07T07:44:44;101597.38;;;12.81;31.09
31044;BME280;17710;52.520;13.352;2023-04-07T07:47:11;101595.41;;;12.88;30.35
31044;BME280;17710;52.520;13.352;2023-04-07T07:49:38;101595.47;;;13.14;30.66
31044;BME280;17710;52.520;13.352;2023-04-07T07:52:06;101605.00;;;12.92;30.88
31044;BME280;17710;52.520;13.352;2023-04-07T07:54:33;101591.94;;;13.13;30.31
31044;BME280;17710;52.520;13.352;2023-04-07T07:56:59;101599.22;;;13.60;29.59
31044;BME280;17710;52.520;13.352;2023-04-07T07:59:27;101596.53;;;13.61;28.53
31044;BME280;17710;52.520;13.352;2023-04-07T08:01:53;101605.63;;;13.54;28.41
31044;BME280;17710;52.520;13.352;2023-04-07T08:04:21;101598.72;;;12.94;29.21
31044;BME280;17710;52.520;13.352;2023-04-07T08:06:48;101606.75;;;13.47;28.63
31044;BME280;17710;52.520;13.352;2023-04-07T08:09:15;101600.06;;;13.35;28.82
31044;BME280;17710;52.520;13.352;2023-04-07T08:11:41;101598.28;;;13.36;28.66
31044;BME280;17710;52.520;13.352;2023-04-07T08:14:07;101598.94;;;13.16;29.08
31044;BME280;17710;52.520;13.352;2023-04-07T08:16:34;101600.78;;;13.40;28.80
31044;BME280;17710;52.520;13.352;2023-04-07T08:19:01;101613.25;;;13.38;27.73
31044;BME280;17710;52.520;13.352;2023-04-07T08:21:28;101614.22;;;13.36;27.02
31044;BME280;17710;52.520;13.352;2023-04-07T08:23:56;101611.75;;;13.56;26.62
31044;BME280;17710;52.520;13.352;2023-04-07T08:26:22;101610.47;;;13.68;25.98
31044;BME280;17710;52.520;13.352;2023-04-07T08:28:49;101606.16;;;13.90;26.14
31044;BME280;17710;52.520;13.352;2023-04-07T08:31:16;101610.97;;;14.04;25.95
31044;BME280;17710;52.520;13.352;2023-04-07T08:33:43;101602.81;;;14.08;25.79
31044;BME280;17710;52.520;13.352;2023-04-07T08:36:09;101598.59;;;14.26;25.53
31044;BME280;17710;52.520;13.352;2023-04-07T08:38:37;101606.97;;;14.40;25.50
31044;BME280;17710;52.520;13.352;2023-04-07T08:41:13;101597.16;;;14.42;25.15
31044;BME280;17710;52.520;13.352;2023-04-07T08:43:43;101596.84;;;14.73;25.07
31044;BME280;17710;52.520;13.352;2023-04-07T08:46:11;101604.25;;;14.65;25.16
31044;BME280;17710;52.520;13.352;2023-04-07T08:48:41;101604.25;;;14.65;25.57
31044;BME280;17710;52.520;13.352;2023-04-07T08:51:12;101602.91;;;14.77;25.43
31044;BME280;17710;52.520;13.352;2023-04-07T08:53:42;101603.06;;;14.72;25.17
31044;BME280;17710;52.520;13.352;2023-04-07T08:56:12;101610.22;;;14.48;25.02
31044;BME280;17710;52.520;13.352;2023-04-07T08:58:39;101611.38;;;14.41;25.10
31044;BME280;17710;52.520;13.352;2023-04-07T09:01:06;101620.00;;;14.23;25.46
31044;BME280;17710;52.520;13.352;2023-04-07T09:03:33;101627.28;;;13.93;25.84
31044;BME280;17710;52.520;13.352;2023-04-07T09:06:00;101616.38;;;14.01;25.72
31044;BME280;17710;52.520;13.352;2023-04-07T09:08:27;101619.59;;;14.33;25.96
31044;BME280;17710;52.520;13.352;2023-04-07T09:10:55;101622.31;;;14.57;25.61
31044;BME280;17710;52.520;13.352;2023-04-07T09:13:23;101630.19;;;14.58;24.88
31044;BME280;17710;52.520;13.352;2023-04-07T09:15:50;101619.28;;;14.66;24.50
31044;BME280;17710;52.520;13.352;2023-04-07T09:18:16;101630.06;;;14.63;24.45
31044;BME280;17710;52.520;13.352;2023-04-07T09:20:57;101630.63;;;14.23;23.12
31044;BME280;17710;52.520;13.352;2023-04-07T09:23:27;101626.19;;;13.98;23.12
31044;BME280;17710;52.520;13.352;2023-04-07T09:25:56;101621.03;;;14.19;22.95
31044;BME280;17710;52.520;13.352;2023-04-07T09:28:24;101627.28;;;13.93;23.28
31044;BME280;17710;52.520;13.352;2023-04-07T09:30:54;101626.34;;;13.69;23.38
31044;BME280;17710;52.520;13.352;2023-04-07T09:33:26;101631.38;;;13.52;24.29
31044;BME280;17710;52.520;13.352;2023-04-07T09:35:53;101628.59;;;13.55;24.67
31044;BME280;17710;52.520;13.352;2023-04-07T09:38:20;101637.28;;;13.60;25.09
31044;BME280;17710;52.520;13.352;2023-04-07T09:40:46;101636.84;;;13.72;25.41
31044;BME280;17710;52.520;13.352;2023-04-07T09:43:16;101636.47;;;13.58;25.50
31044;BME280;17710;52.520;13.352;2023-04-07T09:45:43;101634.50;;;13.65;25.96
31044;BME280;17710;52.520;13.352;2023-04-07T09:48:17;101638.81;;;13.67;25.12
31044;BME280;17710;52.520;13.352;2023-04-07T09:50:44;101639.38;;;13.50;24.96
31044;BME280;17710;52.520;13.352;2023-04-07T09:53:14;101635.16;;;13.45;25.09
31044;BME280;17710;52.520;13.352;2023-04-07T09:55:41;101636.41;;;13.60;25.22
31044;BME280;17710;52.520;13.352;2023-04-07T09:58:08;101639.13;;;13.58;25.63
31044;BME280;17710;52.520;13.352;2023-04-07T10:00:38;101633.16;;;13.78;26.03
31044;BME280;17710;52.520;13.352;2023-04-07T10:03:06;101638.38;;;13.79;26.05
31044;BME280;17710;52.520;13.352;2023-04-07T10:05:33;101638.69;;;13.96;25.97
31044;BME280;17710;52.520;13.352;2023-04-07T10:08:00;101644.69;;;14.02;26.48
31044;BME280;17710;52.520;13.352;2023-04-07T10:10:28;101635.91;;;14.00;26.10
31044;BME280;17710;52.520;13.352;2023-04-07T10:12:56;101631.50;;;13.98;26.44
31044;BME280;17710;52.520;13.352;2023-04-07T10:15:23;101627.00;;;14.01;26.58
31044;BME280;17710;52.520;13.352;2023-04-07T10:17:52;101633.78;;;14.09;26.50
31044;BME280;17710;52.520;13.352;2023-04-07T10:20:21;101634.97;;;13.76;26.75
31044;BME280;17710;52.520;13.352;2023-04-07T10:22:50;101638.72;;;13.95;26.79
31044;BME280;17710;52.520;13.352;2023-04-07T10:25:20;101633.28;;;13.98;26.60
31044;BME280;17710;52.520;13.352;2023-04-07T10:27:49;101633.81;;;13.84;26.91
31044;BME280;17710;52.520;13.352;2023-04-07T10:30:21;101640.84;;;13.59;26.97
31044;BME280;17710;52.520;13.352;2023-04-07T10:32:49;101639.69;;;13.41;27.32
31044;BME280;17710;52.520;13.352;2023-04-07T10:35:18;101643.38;;;13.37;27.66
31044;BME280;17710;52.520;13.352;2023-04-07T10:38:09;101636.56;;;13.29;27.74
31044;BME280;17710;52.520;13.352;2023-04-07T10:40:38;101640.50;;;13.43;27.95
31044;BME280;17710;52.520;13.352;2023-04-07T10:43:05;101634.34;;;13.43;28.12
31044;BME280;17710;52.520;13.352;2023-04-07T10:45:54;101637.69;;;13.48;28.25
31044;BME280;17710;52.520;13.352;2023-04-07T10:48:26;101634.03;;;13.52;28.52
31044;BME280;17710;52.520;13.352;2023-04-07T10:51:14;101632.31;;;14.01;28.26
31044;BME280;17710;52.520;13.352;2023-04-07T10:54:15;101641.34;;;13.96;28.29
31044;BME280;17710;52.520;13.352;2023-04-07T10:57:04;101622.22;;;14.35;28.07
31044;BME280;17710;52.520;13.352;2023-04-07T10:59:32;101627.09;;;14.47;28.31
31044;BME280;17710;52.520;13.352;2023-04-07T11:02:30;101631.34;;;14.51;28.70
31044;BME280;17710;52.520;13.352;2023-04-07T11:04:57;101629.84;;;14.44;29.80
31044;BME280;17710;52.520;13.352;2023-04-07T11:07:43;101635.94;;;13.98;31.32
31044;BME280;17710;52.520;13.352;2023-04-07T11:10:11;101638.34;;;14.06;32.20
31044;BME280;17710;52.520;13.352;2023-04-07T11:12:37;101632.75;;;13.88;33.14
31044;BME280;17710;52.520;13.352;2023-04-07T11:15:16;101636.75;;;14.00;34.65
31044;BME280;17710;52.520;13.352;2023-04-07T11:17:42;101638.50;;;13.76;36.16
31044;BME280;17710;52.520;13.352;2023-04-07T11:20:09;101641.22;;;13.75;36.54
31044;BME280;17710;52.520;13.352;2023-04-07T11:22:35;101636.84;;;13.72;37.27
31044;BME280;17710;52.520;13.352;2023-04-07T11:25:19;101632.59;;;13.68;37.37
31044;BME280;17710;52.520;13.352;2023-04-07T11:27:45;101633.41;;;13.70;37.86
31044;BME280;17710;52.520;13.352;2023-04-07T11:30:13;101632.97;;;13.82;38.03
31044;BME280;17710;52.520;13.352;2023-04-07T11:32:42;101635.34;;;13.65;38.08
31044;BME280;17710;52.520;13.352;2023-04-07T11:35:12;101628.09;;;13.70;39.62
31044;BME280;17710;52.520;13.352;2023-04-07T11:37:39;101630.19;;;13.85;39.37
31044;BME280;17710;52.520;13.352;2023-04-07T11:40:09;101634.81;;;13.80;40.13
31044;BME280;17710;52.520;13.352;2023-04-07T11:42:36;101629.41;;;13.83;39.90
31044;BME280;17710;52.520;13.352;2023-04-07T11:45:04;101624.63;;;13.93;41.63
31044;BME280;17710;52.520;13.352;2023-04-07T11:47:34;101622.09;;;13.90;41.09
31044;BME280;17710;52.520;13.352;2023-04-07T11:50:01;101624.97;;;13.84;41.85
31044;BME280;17710;52.520;13.352;2023-04-07T11:52:27;101627.53;;;13.61;43.28
31044;BME280;17710;52.520;13.352;2023-04-07T11:54:54;101627.47;;;13.62;44.09
31044;BME280;17710;52.520;13.352;2023-04-07T11:57:25;101625.88;;;13.58;44.62
31044;BME280;17710;52.520;13.352;2023-04-07T12:00:04;101622.25;;;13.33;45.98
31044;BME280;17710;52.520;13.352;2023-04-07T12:02:31;101631.88;;;13.37;45.61
31044;BME280;17710;52.520;13.352;2023-04-07T12:04:58;101618.69;;;13.34;45.81
31044;BME280;17710;52.520;13.352;2023-04-07T12:07:25;101628.13;;;13.69;45.73
31044;BME280;17710;52.520;13.352;2023-04-07T12:09:52;101627.50;;;13.36;45.61
31044;BME280;17710;52.520;13.352;2023-04-07T12:12:26;101627.06;;;13.48;45.47
31044;BME280;17710;52.520;13.352;2023-04-07T12:14:54;101627.66;;;13.31;46.26
31044;BME280;17710;52.520;13.352;2023-04-07T12:17:22;101628.53;;;13.02;47.03
31044;BME280;17710;52.520;13.352;2023-04-07T12:19:49;101632.69;;;12.83;47.84
31044;BME280;17710;52.520;13.352;2023-04-07T12:22:15;101634.16;;;13.21;47.66
31044;BME280;17710;52.520;13.352;2023-04-07T12:24:42;101627.38;;;13.12;47.91
31044;BME280;17710;52.520;13.352;2023-04-07T12:27:08;101633.69;;;13.07;48.80
31044;BME280;17710;52.520;13.352;2023-04-07T12:29:36;101626.88;;;13.28;48.21
31044;BME280;17710;52.520;13.352;2023-04-07T12:32:03;101627.00;;;12.95;49.10
31044;BME280;17710;52.520;13.352;2023-04-07T12:34:29;101633.34;;;13.19;48.10
31044;BME280;17710;52.520;13.352;2023-04-07T12:36:56;101622.25;;;13.33;48.77
31044;BME280;17710;52.520;13.352;2023-04-07T12:39:22;101625.66;;;13.38;48.89
31044;BME280;17710;52.520;13.352;2023-04-07T12:41:48;101630.56;;;13.50;47.96
31044;BME280;17710;52.520;13.352;2023-04-07T12:44:17;101623.88;;;13.65;48.94